SBCR

Corumbá International Airport

Corumbá, Brazil
TAF SBCR 241500Z 2418/2518 06007KT CAVOK TX37/2418Z TN27/2509Z TEMPO 2418/2420 9999 FEW030 FEW035TCU RMK PDJ
Issued Valid From Valid To
Sep-24 @ 15:00 UTC
(5 hours ago)
Sep-24 @ 18:00 UTC
(2 hours ago)
Sep-25 @ 18:00 UTC
(in 22 hours)
Sep-24 @ 18:00 to Sep-25 @ 18:00
TAF SBCR 241500Z 2418/2518 06007KT CAVOK TX37/2418Z TN27/2509Z
Wind Visibility Clouds
60° at 7 knots 10,000+ meters
  • No significant clouds
Temporary Sep-24 @ 18:00 to Sep-24 @ 20:00
TEMPO 2418/2420 9999 FEW030 FEW035TCU RMK PDJ
Visibility Clouds
10,000+ meters
  • Few at 3,000' AGL
  • Few at 3,500' AGL
TAF SBCR 241500Z 2418/2518 06007KT CAVOK TX37/2418Z TN27/2509Z TEMPO 2418/2420 9999 FEW030 FEW035TCU RMK PDJ
Issued Sep-24 @ 15:00 UTC
(5 hours ago)
Valid From Sep-24 @ 18:00 UTC
(2 hours ago)
Valid To Sep-25 @ 18:00 UTC
(in 22 hours)
Sep-24 @ 18:00 - Sep-25 @ 18:00
Wind Visibility
60° at 7 knots 10,000+ meters
Clouds
  • No significant clouds
Temporary Sep-24 @ 18:00 - Sep-24 @ 20:00
Clouds
  • Few at 3,000' AGL
  • Few at 3,500' AGL